createdAt,value
2019-04-14T00:01:47.725Z,101221.20
2019-04-14T00:04:20.433Z,101216.03
2019-04-14T00:06:50.470Z,101220.27
2019-04-14T00:09:20.650Z,101216.30
2019-04-14T00:11:50.382Z,101217.80
2019-04-14T00:14:20.665Z,101217.64
2019-04-14T00:16:49.457Z,101215.80
2019-04-14T00:19:18.119Z,101221.31
2019-04-14T00:21:47.624Z,101212.86
2019-04-14T00:24:18.341Z,101213.44
2019-04-14T00:26:47.146Z,101210.39
2019-04-14T00:29:15.818Z,101208.58
2019-04-14T00:31:45.875Z,101211.73
2019-04-14T00:34:35.330Z,101217.28
2019-04-14T00:37:29.504Z,101215.52
2019-04-14T00:40:02.585Z,101210.22
2019-04-14T00:42:40.883Z,101202.45
2019-04-14T00:45:17.653Z,101204.16
2019-04-14T00:48:01.093Z,101198.22
2019-04-14T00:50:26.111Z,101198.03
2019-04-14T00:52:56.665Z,101201.21
2019-04-14T00:55:31.487Z,101191.86
2019-04-14T00:58:04.259Z,101201.92
2019-04-14T01:00:35.102Z,101199.72
2019-04-14T01:03:04.821Z,101198.37
2019-04-14T01:05:54.778Z,101199.17
2019-04-14T01:08:24.832Z,101203.11
2019-04-14T01:10:54.015Z,101199.33
2019-04-14T01:13:22.740Z,101194.65
2019-04-14T01:15:58.616Z,101202.66
2019-04-14T01:18:21.795Z,101204.42
2019-04-14T01:20:51.415Z,101202.20
2019-04-14T01:23:21.443Z,101207.94
2019-04-14T01:25:50.328Z,101214.18
2019-04-14T01:28:20.113Z,101208.33
2019-04-14T01:30:50.034Z,101218.86
2019-04-14T01:33:18.869Z,101218.02
2019-04-14T01:35:48.796Z,101226.29
2019-04-14T01:38:17.646Z,101227.10
2019-04-14T01:40:46.691Z,101232.30
2019-04-14T01:43:16.657Z,101223.67
2019-04-14T01:45:58.188Z,101233.30
2019-04-14T01:48:17.058Z,101237.17
2019-04-14T01:51:11.326Z,101235.98
2019-04-14T01:54:01.802Z,101240.57
2019-04-14T01:56:55.915Z,101239.79
2019-04-14T01:59:24.645Z,101239.11
2019-04-14T02:01:54.294Z,101248.49
2019-04-14T02:04:22.985Z,101246.83
2019-04-14T02:06:52.727Z,101249.09
2019-04-14T02:09:21.509Z,101254.99
2019-04-14T02:11:51.025Z,101250.83
2019-04-14T02:14:21.097Z,101245.59
2019-04-14T02:16:54.137Z,101249.98
2019-04-14T02:19:20.309Z,101246.83
2019-04-14T02:21:49.891Z,101243.44
2019-04-14T02:24:19.896Z,101243.79
2019-04-14T02:26:48.656Z,101242.20
2019-04-14T02:29:17.317Z,101237.54
2019-04-14T02:32:23.663Z,101231.75
2019-04-14T02:37:19.532Z,101239.16
2019-04-14T02:39:48.218Z,101233.25
2019-04-14T02:44:43.592Z,101237.02
2019-04-14T02:47:36.338Z,101238.07
2019-04-14T02:49:50.599Z,101242.34
2019-04-14T02:54:51.643Z,101252.14
2019-04-14T02:57:17.338Z,101252.71
2019-04-14T03:04:49.144Z,101252.94
2019-04-14T03:07:21.858Z,101252.47
2019-04-14T03:09:48.435Z,101249.09
2019-04-14T03:12:19.250Z,101243.52
2019-04-14T03:17:31.040Z,101245.41
2019-04-14T03:20:14.096Z,101241.55
2019-04-14T03:23:13.840Z,101254.44
2019-04-14T03:25:38.784Z,101250.11
2019-04-14T03:28:28.316Z,101249.82
2019-04-14T03:31:51.786Z,101249.52
2019-04-14T03:43:41.396Z,101264.39
2019-04-14T03:51:28.083Z,101270.37
2019-04-14T03:53:47.247Z,101268.83
2019-04-14T03:56:29.653Z,101273.20
2019-04-14T03:58:58.319Z,101268.55
2019-04-14T04:01:27.984Z,101271.54
2019-04-14T04:03:56.736Z,101272.03
2019-04-14T04:06:25.389Z,101269.62
2019-04-14T04:08:55.210Z,101271.22
2019-04-14T04:11:23.919Z,101269.84
2019-04-14T04:13:52.602Z,101270.07
2019-04-14T04:16:29.006Z,101271.04
2019-04-14T04:19:07.390Z,101272.88
2019-04-14T04:21:50.936Z,101278.33
2019-04-14T04:24:45.481Z,101283.78
2019-04-14T04:27:33.320Z,101280.95
2019-04-14T04:30:08.166Z,101278.20
2019-04-14T04:32:45.050Z,101278.20
2019-04-14T04:35:28.140Z,101278.73
2019-04-14T04:38:09.538Z,101285.73
2019-04-14T04:40:39.634Z,101290.58
2019-04-14T04:43:08.397Z,101289.70
2019-04-14T04:45:37.054Z,101288.02
2019-04-14T04:48:06.700Z,101292.70
2019-04-14T04:50:36.731Z,101295.31
2019-04-14T04:53:06.848Z,101295.73
2019-04-14T04:55:35.658Z,101293.95
2019-04-14T04:58:05.555Z,101292.03
2019-04-14T05:00:35.295Z,101294.95
2019-04-14T05:03:04.081Z,101295.84
2019-04-14T05:06:09.316Z,101295.30
2019-04-14T05:08:39.712Z,101298.50
2019-04-14T05:11:31.636Z,101286.90
2019-04-14T05:14:02.850Z,101289.19
2019-04-14T05:16:32.448Z,101294.93
2019-04-14T05:19:15.907Z,101297.43
2019-04-14T05:21:32.150Z,101293.03
2019-04-14T05:24:00.934Z,101303.11
2019-04-14T05:26:30.815Z,101298.63
2019-04-14T05:28:59.683Z,101303.06
2019-04-14T05:31:29.406Z,101301.27
2019-04-14T05:33:59.943Z,101302.13
2019-04-14T05:36:28.689Z,101307.00
2019-04-14T05:38:58.123Z,101308.17
2019-04-14T05:41:26.806Z,101309.20
2019-04-14T05:43:58.234Z,101313.61
2019-04-14T05:46:25.880Z,101311.42
2019-04-14T05:48:55.664Z,101314.50
2019-04-14T05:51:24.843Z,101316.38
2019-04-14T05:53:54.508Z,101311.35
2019-04-14T05:56:23.253Z,101320.72
2019-04-14T05:58:51.887Z,101324.84
2019-04-14T06:01:20.568Z,101320.84
2019-04-14T06:03:49.677Z,101324.24
2019-04-14T06:06:18.404Z,101325.91
2019-04-14T06:08:47.063Z,101331.34
2019-04-14T06:11:15.725Z,101332.45
2019-04-14T06:13:44.410Z,101336.19
2019-04-14T06:16:13.118Z,101333.47
2019-04-14T06:18:41.778Z,101331.55
2019-04-14T06:21:10.436Z,101333.59
2019-04-14T06:23:41.288Z,101330.97
2019-04-14T06:26:09.952Z,101335.30
2019-04-14T06:28:38.610Z,101334.69
2019-04-14T06:31:38.299Z,101333.02
2019-04-14T06:34:17.358Z,101332.20
2019-04-14T06:37:03.962Z,101324.36
2019-04-14T06:39:35.101Z,101328.34
2019-04-14T06:42:04.083Z,101333.27
2019-04-14T06:44:32.761Z,101330.10
2019-04-14T06:47:01.428Z,101332.23
2019-04-14T06:49:30.081Z,101328.03
2019-04-14T06:51:58.834Z,101327.98
2019-04-14T06:54:27.512Z,101335.55
2019-04-14T06:56:56.201Z,101335.65
2019-04-14T06:59:24.867Z,101336.08
2019-04-14T07:01:53.527Z,101327.23
2019-04-14T07:04:22.213Z,101329.16
2019-04-14T07:06:51.479Z,101331.03
2019-04-14T07:09:20.306Z,101326.44
2019-04-14T07:11:49.005Z,101332.41
2019-04-14T07:14:17.661Z,101335.41
2019-04-14T07:16:46.371Z,101332.88
2019-04-14T07:19:15.042Z,101329.65
2019-04-14T07:21:43.680Z,101328.67
2019-04-14T07:24:12.369Z,101324.48
2019-04-14T07:26:41.187Z,101325.89
2019-04-14T07:29:09.856Z,101329.53
2019-04-14T07:32:06.598Z,101335.48
2019-04-14T07:34:54.788Z,101334.13
2019-04-14T07:37:45.536Z,101334.47
2019-04-14T07:40:24.158Z,101339.20
2019-04-14T07:42:59.025Z,101340.97
2019-04-14T07:45:45.806Z,101333.02
2019-04-14T07:48:34.695Z,101333.70
2019-04-14T07:51:23.625Z,101335.56
2019-04-14T07:54:11.358Z,101334.23
2019-04-14T07:56:49.876Z,101335.06
2019-04-14T07:59:31.702Z,101327.61
2019-04-14T08:02:06.090Z,101322.69
2019-04-14T08:04:37.778Z,101326.47
2019-04-14T08:07:06.510Z,101327.70
2019-04-14T08:09:35.164Z,101329.89
2019-04-14T08:12:03.859Z,101323.94
2019-04-14T08:14:32.542Z,101323.98
2019-04-14T08:17:01.246Z,101331.34
2019-04-14T08:19:29.897Z,101324.72
2019-04-14T08:21:58.552Z,101326.84
2019-04-14T08:24:27.242Z,101325.84
2019-04-14T08:26:55.978Z,101325.75
2019-04-14T08:29:24.634Z,101324.39
2019-04-14T08:31:53.338Z,101327.13
2019-04-14T08:34:21.984Z,101334.20
2019-04-14T08:36:50.711Z,101336.71
2019-04-14T08:39:19.392Z,101336.94
2019-04-14T08:42:05.370Z,101338.61
2019-04-14T08:44:53.232Z,101342.41
2019-04-14T08:47:53.276Z,101335.28
2019-04-14T08:50:38.924Z,101329.63
2019-04-14T08:53:02.682Z,101325.13
2019-04-14T08:55:40.081Z,101322.70
2019-04-14T08:58:30.826Z,101319.28
2019-04-14T09:01:04.811Z,101325.34
2019-04-14T09:04:07.579Z,101316.95
2019-04-14T09:06:53.169Z,101319.92
2019-04-14T09:09:25.835Z,101321.73
2019-04-14T09:11:58.228Z,101318.14
2019-04-14T09:14:26.950Z,101319.61
2019-04-14T09:16:55.627Z,101325.58
2019-04-14T09:19:24.583Z,101315.79
2019-04-14T09:21:53.276Z,101313.48
2019-04-14T09:24:21.952Z,101320.54
2019-04-14T09:26:50.611Z,101322.78
2019-04-14T09:29:19.297Z,101323.18
2019-04-14T09:31:48.002Z,101321.09
2019-04-14T09:34:16.671Z,101316.11
2019-04-14T09:36:45.327Z,101314.95
2019-04-14T09:39:14.024Z,101317.33
2019-04-14T09:41:42.696Z,101311.37
2019-04-14T09:44:11.360Z,101317.70
2019-04-14T09:46:40.054Z,101308.63
2019-04-14T09:49:08.716Z,101311.95
2019-04-14T09:51:37.381Z,101310.19
2019-04-14T09:54:06.155Z,101325.23
2019-04-14T09:56:34.842Z,101327.85
2019-04-14T09:59:03.847Z,101326.80
2019-04-14T10:01:32.624Z,101327.20
2019-04-14T10:04:01.284Z,101317.52
2019-04-14T10:06:30.030Z,101321.00
2019-04-14T10:08:58.724Z,101311.27
2019-04-14T10:11:27.484Z,101313.74
2019-04-14T10:13:56.152Z,101322.22
2019-04-14T10:16:24.839Z,101329.02
2019-04-14T10:18:53.560Z,101333.74
2019-04-14T10:21:22.228Z,101346.03
2019-04-14T10:23:50.897Z,101344.77
2019-04-14T10:26:19.597Z,101345.23
2019-04-14T10:28:50.749Z,101351.85
2019-04-14T10:31:19.046Z,101347.39
2019-04-14T10:33:47.741Z,101345.39
2019-04-14T10:36:16.415Z,101351.08
2019-04-14T10:38:45.110Z,101351.06
2019-04-14T10:41:13.774Z,101346.72
2019-04-14T10:43:42.445Z,101349.00
2019-04-14T10:46:11.139Z,101353.88
2019-04-14T10:48:39.818Z,101353.06
2019-04-14T10:51:08.512Z,101350.09
2019-04-14T10:53:37.178Z,101346.04
2019-04-14T10:56:05.933Z,101354.12
2019-04-14T10:58:34.608Z,101356.95
2019-04-14T11:01:03.271Z,101357.53
2019-04-14T11:03:31.982Z,101350.58
2019-04-14T11:06:06.050Z,101352.99
2019-04-14T11:08:34.752Z,101355.45
2019-04-14T11:11:03.535Z,101348.54
2019-04-14T11:13:32.198Z,101345.34
2019-04-14T11:16:00.956Z,101347.03
2019-04-14T11:18:29.619Z,101350.75
2019-04-14T11:20:58.281Z,101345.55
2019-04-14T11:23:26.970Z,101340.32
2019-04-14T11:25:55.638Z,101346.95
2019-04-14T11:28:24.297Z,101351.95
2019-04-14T11:30:52.985Z,101351.67
2019-04-14T11:33:46.975Z,101337.80
2019-04-14T11:36:33.552Z,101344.13
2019-04-14T11:39:08.159Z,101355.12
2019-04-14T11:41:36.865Z,101351.93
2019-04-14T11:44:05.760Z,101351.77
2019-04-14T11:46:34.375Z,101348.14
2019-04-14T11:49:03.149Z,101350.02
2019-04-14T11:51:31.815Z,101349.97
2019-04-14T11:54:00.686Z,101358.64
2019-04-14T11:56:29.411Z,101358.09
2019-04-14T11:58:58.075Z,101355.20
2019-04-14T12:01:44.590Z,101363.05
2019-04-14T12:04:24.406Z,101359.21
2019-04-14T12:06:59.707Z,101358.80
2019-04-14T12:09:31.240Z,101366.70
2019-04-14T12:11:59.933Z,101366.08
2019-04-14T12:14:28.937Z,101370.61
2019-04-14T12:16:57.633Z,101369.75
2019-04-14T12:19:26.329Z,101373.13
2019-04-14T12:22:07.445Z,101379.45
2019-04-14T12:24:25.409Z,101372.58
2019-04-14T12:26:54.073Z,101375.13
2019-04-14T12:29:23.645Z,101380.66
2019-04-14T12:31:53.078Z,101381.14
2019-04-14T12:34:21.854Z,101382.11
2019-04-14T12:36:50.504Z,101379.02
2019-04-14T12:39:23.265Z,101382.26
2019-04-14T12:42:11.494Z,101382.27
2019-04-14T12:44:52.875Z,101382.63
2019-04-14T12:47:41.441Z,101395.16
2019-04-14T12:50:18.078Z,101388.42
2019-04-14T12:52:46.761Z,101393.14
2019-04-14T12:55:15.514Z,101384.60
2019-04-14T12:57:53.164Z,101387.60
2019-04-14T13:00:50.071Z,101393.95
2019-04-14T13:03:19.035Z,101400.22
2019-04-14T13:05:47.693Z,101398.45
2019-04-14T13:08:16.380Z,101404.50
2019-04-14T13:10:45.482Z,101402.55
2019-04-14T13:13:14.150Z,101401.67
2019-04-14T13:15:42.832Z,101391.92
2019-04-14T13:18:11.517Z,101396.78
2019-04-14T13:20:40.197Z,101398.39
2019-04-14T13:23:08.858Z,101396.86
2019-04-14T13:25:37.556Z,101392.45
2019-04-14T13:28:06.304Z,101400.02
2019-04-14T13:30:37.427Z,101396.92
2019-04-14T13:33:06.202Z,101407.96
2019-04-14T13:35:34.867Z,101403.91
2019-04-14T13:38:03.598Z,101405.83
2019-04-14T13:40:32.290Z,101402.41
2019-04-14T13:43:01.273Z,101408.95
2019-04-14T13:45:29.938Z,101413.54
2019-04-14T13:47:58.607Z,101409.34
2019-04-14T13:50:27.355Z,101404.25
2019-04-14T13:52:56.021Z,101404.62
2019-04-14T13:55:24.701Z,101405.80
2019-04-14T13:57:53.402Z,101399.86
2019-04-14T14:00:23.029Z,101403.41
2019-04-14T14:02:51.701Z,101402.22
2019-04-14T14:05:20.394Z,101402.79
2019-04-14T14:07:49.065Z,101398.97
2019-04-14T14:10:18.202Z,101396.22
2019-04-14T14:13:06.013Z,101390.72
2019-04-14T14:16:12.255Z,101393.27
2019-04-14T14:18:52.474Z,101389.91
2019-04-14T14:21:45.841Z,101398.17
2019-04-14T14:24:51.699Z,101392.83
2019-04-14T14:27:20.384Z,101393.20
2019-04-14T14:29:49.047Z,101394.70
2019-04-14T14:32:24.174Z,101393.25
2019-04-14T14:34:52.834Z,101396.32
2019-04-14T14:37:21.524Z,101394.77
2019-04-14T14:39:50.211Z,101392.52
2019-04-14T14:42:18.872Z,101395.00
2019-04-14T14:44:52.934Z,101390.83
2019-04-14T14:47:24.473Z,101392.72
2019-04-14T14:50:11.202Z,101391.82
2019-04-14T14:52:40.892Z,101392.63
2019-04-14T14:55:09.630Z,101399.95
2019-04-14T14:57:38.390Z,101399.31
2019-04-14T15:00:13.445Z,101402.25
2019-04-14T15:02:42.136Z,101400.71
2019-04-14T15:05:10.873Z,101402.85
2019-04-14T15:07:39.536Z,101401.02
2019-04-14T15:10:08.381Z,101401.66
2019-04-14T15:12:37.043Z,101406.77
2019-04-14T15:15:06.314Z,101410.05
2019-04-14T15:17:35.009Z,101403.72
2019-04-14T15:20:03.983Z,101402.23
2019-04-14T15:22:32.670Z,101405.95
2019-04-14T15:25:01.356Z,101405.09
2019-04-14T15:27:30.093Z,101408.99
2019-04-14T15:29:58.761Z,101398.89
2019-04-14T15:32:27.529Z,101402.41
2019-04-14T15:34:57.043Z,101397.91
2019-04-14T15:37:25.736Z,101405.35
2019-04-14T15:39:54.432Z,101406.67
2019-04-14T15:42:23.094Z,101405.03
2019-04-14T15:44:51.747Z,101410.52
2019-04-14T15:47:20.523Z,101412.27
2019-04-14T15:49:49.174Z,101406.84
2019-04-14T15:52:17.908Z,101407.98
2019-04-14T15:54:46.597Z,101404.03
2019-04-14T15:57:33.221Z,101403.27
2019-04-14T16:00:12.677Z,101402.05
2019-04-14T16:02:46.967Z,101402.48
2019-04-14T16:05:22.637Z,101405.10
2019-04-14T16:07:58.153Z,101399.39
2019-04-14T16:10:45.880Z,101403.72
2019-04-14T16:13:36.667Z,101412.02
2019-04-14T16:16:30.649Z,101409.55
2019-04-14T16:19:04.271Z,101406.43
2019-04-14T16:21:32.989Z,101410.45
2019-04-14T16:24:01.654Z,101413.41
2019-04-14T16:26:39.649Z,101412.91
2019-04-14T16:29:31.803Z,101418.68
2019-04-14T16:32:20.068Z,101406.97
2019-04-14T16:34:54.966Z,101411.38
2019-04-14T16:37:23.640Z,101413.69
2019-04-14T16:39:52.320Z,101413.77
2019-04-14T16:42:21.008Z,101401.88
2019-04-14T16:44:49.675Z,101406.51
2019-04-14T16:47:18.403Z,101415.23
2019-04-14T16:49:47.164Z,101417.88
2019-04-14T16:52:33.559Z,101417.88
2019-04-14T16:55:14.777Z,101418.20
2019-04-14T16:57:56.077Z,101423.30
2019-04-14T17:00:29.555Z,101426.27
2019-04-14T17:02:58.223Z,101422.31
2019-04-14T17:05:26.909Z,101436.64
2019-04-14T17:07:55.561Z,101439.60
2019-04-14T17:10:24.240Z,101438.59
2019-04-14T17:12:52.913Z,101441.91
2019-04-14T17:15:36.091Z,101438.92
2019-04-14T17:18:17.193Z,101444.52
2019-04-14T17:20:54.182Z,101445.83
2019-04-14T17:23:34.269Z,101443.37
2019-04-14T17:26:07.805Z,101454.56
2019-04-14T17:28:54.553Z,101448.95
2019-04-14T17:31:45.274Z,101458.31
2019-04-14T17:34:17.959Z,101456.52
2019-04-14T17:37:11.453Z,101462.12
2019-04-14T17:39:45.311Z,101463.59
2019-04-14T17:42:26.976Z,101470.45
2019-04-14T17:45:27.140Z,101473.94
2019-04-14T17:48:00.317Z,101472.11
2019-04-14T17:50:47.315Z,101480.20
2019-04-14T17:53:34.958Z,101478.73
2019-04-14T17:56:09.921Z,101474.98
2019-04-14T17:58:48.112Z,101491.25
2019-04-14T18:01:29.511Z,101487.63
2019-04-14T18:04:01.362Z,101496.38
2019-04-14T18:06:37.547Z,101496.36
2019-04-14T18:09:20.539Z,101506.72
2019-04-14T18:12:04.718Z,101504.43
2019-04-14T18:14:44.234Z,101504.16
2019-04-14T18:17:22.672Z,101506.78
2019-04-14T18:19:55.467Z,101509.06
2019-04-14T18:22:24.148Z,101505.89
2019-04-14T18:24:52.807Z,101505.11
2019-04-14T18:27:21.493Z,101513.81
2019-04-14T18:30:06.512Z,101514.13
2019-04-14T18:32:40.167Z,101509.70
2019-04-14T18:35:16.350Z,101522.56
2019-04-14T18:38:16.327Z,101525.39
2019-04-14T18:40:55.203Z,101528.29
2019-04-14T18:43:35.054Z,101534.09
2019-04-14T18:46:28.800Z,101538.03
2019-04-14T18:49:02.497Z,101543.20
2019-04-14T18:51:41.349Z,101540.90
2019-04-14T18:54:23.432Z,101545.48
2019-04-14T18:57:11.165Z,101536.05
2019-04-14T18:59:45.689Z,101543.13
2019-04-14T19:02:16.137Z,101550.38
2019-04-14T19:04:44.828Z,101551.57
2019-04-14T19:07:13.487Z,101551.75
2019-04-14T19:09:42.147Z,101552.94
2019-04-14T19:12:28.861Z,101556.38
2019-04-14T19:15:05.508Z,101553.58
2019-04-14T19:17:46.570Z,101559.69
2019-04-14T19:20:16.357Z,101557.40
2019-04-14T19:22:45.040Z,101557.91
2019-04-14T19:25:13.826Z,101565.14
2019-04-14T19:27:42.490Z,101566.18
2019-04-14T19:30:11.532Z,101559.91
2019-04-14T19:32:40.231Z,101558.95
2019-04-14T19:35:08.965Z,101563.67
2019-04-14T19:37:37.644Z,101564.36
2019-04-14T19:40:06.619Z,101566.86
2019-04-14T19:42:35.286Z,101568.98
2019-04-14T19:45:04.081Z,101571.61
2019-04-14T19:47:32.769Z,101568.99
2019-04-14T19:50:01.432Z,101558.97
2019-04-14T19:52:30.088Z,101567.86
2019-04-14T19:54:58.778Z,101567.67
2019-04-14T19:57:27.436Z,101568.81
2019-04-14T19:59:56.128Z,101571.78
2019-04-14T20:02:24.805Z,101563.42
2019-04-14T20:04:53.460Z,101570.02
2019-04-14T20:07:22.150Z,101566.48
2019-04-14T20:09:50.815Z,101568.66
2019-04-14T20:12:19.549Z,101574.27
2019-04-14T20:14:48.226Z,101568.52
2019-04-14T20:17:42.006Z,101570.64
2019-04-14T20:20:21.492Z,101577.23
2019-04-14T20:23:08.282Z,101570.65
2019-04-14T20:26:03.620Z,101563.72
2019-04-14T20:28:46.162Z,101572.66
2019-04-14T20:31:46.210Z,101567.39
2019-04-14T20:34:14.954Z,101566.54
2019-04-14T20:36:43.643Z,101565.87
2019-04-14T20:39:15.617Z,101559.89
2019-04-14T20:41:44.349Z,101558.47
2019-04-14T20:44:13.172Z,101555.84
2019-04-14T20:46:41.901Z,101559.50
2019-04-14T20:49:10.641Z,101553.84
2019-04-14T20:51:39.319Z,101557.50
2019-04-14T20:54:08.048Z,101556.98
2019-04-14T20:56:36.807Z,101553.19
2019-04-14T20:59:05.467Z,101558.13
2019-04-14T21:01:35.914Z,101554.86
2019-04-14T21:04:17.378Z,101558.32
2019-04-14T21:07:11.097Z,101552.73
2019-04-14T21:09:44.568Z,101562.27
2019-04-14T21:12:21.698Z,101563.42
2019-04-14T21:14:54.870Z,101571.55
2019-04-14T21:17:44.752Z,101562.97
2019-04-14T21:20:24.487Z,101567.91
2019-04-14T21:23:07.541Z,101574.32
2019-04-14T21:26:00.768Z,101565.11
2019-04-14T21:28:29.907Z,101569.56
2019-04-14T21:31:07.956Z,101562.63
2019-04-14T21:33:44.694Z,101564.46
2019-04-14T21:36:21.245Z,101572.52
2019-04-14T21:39:11.347Z,101573.17
2019-04-14T21:41:40.110Z,101576.96
2019-04-14T21:44:08.766Z,101574.34
2019-04-14T21:46:37.458Z,101581.30
2019-04-14T21:49:06.195Z,101585.08
2019-04-14T21:51:57.012Z,101589.22
2019-04-14T21:54:25.619Z,101584.16
2019-04-14T21:57:12.021Z,101583.27
2019-04-14T21:59:56.877Z,101586.41
2019-04-14T22:02:43.211Z,101588.92
2019-04-14T22:05:21.372Z,101589.39
2019-04-14T22:07:59.910Z,101592.18
2019-04-14T22:10:38.700Z,101588.23
2019-04-14T22:13:07.471Z,101587.77
2019-04-14T22:15:36.152Z,101596.20
2019-04-14T22:18:04.886Z,101594.03
2019-04-14T22:20:33.648Z,101603.23
2019-04-14T22:23:03.969Z,101601.61
2019-04-14T22:25:32.687Z,101607.39
2019-04-14T22:28:01.495Z,101598.62
2019-04-14T22:30:30.231Z,101600.41
2019-04-14T22:32:58.916Z,101603.72
2019-04-14T22:35:27.572Z,101602.91
2019-04-14T22:37:56.247Z,101610.65
2019-04-14T22:40:24.989Z,101610.47
2019-04-14T22:42:53.673Z,101613.43
2019-04-14T22:45:22.430Z,101610.63
2019-04-14T22:47:51.085Z,101614.06
2019-04-14T22:50:19.740Z,101616.55
2019-04-14T22:52:48.416Z,101622.18
2019-04-14T22:55:17.086Z,101620.17
2019-04-14T22:57:45.773Z,101629.09
2019-04-14T23:00:31.985Z,101623.62
2019-04-14T23:03:07.763Z,101627.90
2019-04-14T23:06:01.306Z,101629.11
2019-04-14T23:08:35.490Z,101628.28
2019-04-14T23:11:13.314Z,101618.89
2019-04-14T23:13:50.790Z,101624.17
2019-04-14T23:16:47.595Z,101613.48
2019-04-14T23:19:22.490Z,101609.70
2019-04-14T23:22:02.778Z,101611.14
2019-04-14T23:24:35.020Z,101614.28
2019-04-14T23:27:03.709Z,101617.58
2019-04-14T23:29:32.395Z,101625.17
2019-04-14T23:32:01.126Z,101611.62
2019-04-14T23:34:29.804Z,101623.13
2019-04-14T23:36:58.565Z,101620.84
2019-04-14T23:39:27.310Z,101615.73
2019-04-14T23:41:55.964Z,101616.70
2019-04-14T23:44:24.645Z,101616.70
2019-04-14T23:46:53.305Z,101607.98
2019-04-14T23:49:22.043Z,101603.17
2019-04-14T23:51:50.733Z,101604.66
2019-04-14T23:54:19.396Z,101593.96
2019-04-14T23:56:48.054Z,101597.30
2019-04-14T23:59:17.225Z,101597.61
